sensor_id;sensor_type;location;lat;lon;timestamp;pressure;altitude;pressure_sealevel;temperature;humidity
82160;BME280;71734;50.876;7.372;2023-08-30T00:00:47;98400.09;;;15.55;74.81
82160;BME280;71734;50.876;7.372;2023-08-30T00:03:15;98404.84;;;15.64;74.98
82160;BME280;71734;50.876;7.372;2023-08-30T00:05:42;98402.50;;;15.72;74.15
82160;BME280;71734;50.876;7.372;2023-08-30T00:08:09;98398.66;;;15.76;74.02
82160;BME280;71734;50.876;7.372;2023-08-30T00:10:35;98405.28;;;15.84;74.18
82160;BME280;71734;50.876;7.372;2023-08-30T00:13:03;98407.13;;;15.96;74.06
82160;BME280;71734;50.876;7.372;2023-08-30T00:15:30;98407.19;;;15.81;74.54
82160;BME280;71734;50.876;7.372;2023-08-30T00:17:56;98411.03;;;15.65;74.91
82160;BME280;71734;50.876;7.372;2023-08-30T00:20:24;98412.22;;;15.47;75.67
82160;BME280;71734;50.876;7.372;2023-08-30T00:22:50;98402.34;;;15.34;76.11
82160;BME280;71734;50.876;7.372;2023-08-30T00:25:17;98402.13;;;15.52;75.55
82160;BME280;71734;50.876;7.372;2023-08-30T00:27:44;98412.09;;;15.62;75.55
82160;BME280;71734;50.876;7.372;2023-08-30T00:30:11;98411.69;;;15.68;74.96
82160;BME280;71734;50.876;7.372;2023-08-30T00:32:38;98410.22;;;15.90;73.93
82160;BME280;71734;50.876;7.372;2023-08-30T00:35:05;98409.34;;;15.76;74.34
82160;BME280;71734;50.876;7.372;2023-08-30T00:37:33;98407.41;;;15.78;74.29
82160;BME280;71734;50.876;7.372;2023-08-30T00:40:00;98401.84;;;15.81;74.44
82160;BME280;71734;50.876;7.372;2023-08-30T00:42:26;98409.47;;;15.88;74.06
82160;BME280;71734;50.876;7.372;2023-08-30T00:44:53;98411.94;;;15.91;73.34
82160;BME280;71734;50.876;7.372;2023-08-30T00:47:20;98406.47;;;15.79;74.40
82160;BME280;71734;50.876;7.372;2023-08-30T00:49:47;98404.63;;;15.67;74.81
82160;BME280;71734;50.876;7.372;2023-08-30T00:52:15;98399.69;;;15.61;75.05
82160;BME280;71734;50.876;7.372;2023-08-30T00:54:43;98400.34;;;15.65;74.43
82160;BME280;71734;50.876;7.372;2023-08-30T00:57:09;98393.59;;;15.59;75.02
82160;BME280;71734;50.876;7.372;2023-08-30T00:59:36;98393.28;;;15.64;74.53
82160;BME280;71734;50.876;7.372;2023-08-30T01:02:04;98390.97;;;15.72;74.19
82160;BME280;71734;50.876;7.372;2023-08-30T01:04:31;98395.22;;;15.74;74.26
82160;BME280;71734;50.876;7.372;2023-08-30T01:06:57;98382.34;;;15.54;75.02
82160;BME280;71734;50.876;7.372;2023-08-30T01:09:24;98380.72;;;15.25;76.40
82160;BME280;71734;50.876;7.372;2023-08-30T01:12:00;98385.81;;;15.42;75.33
82160;BME280;71734;50.876;7.372;2023-08-30T01:14:38;98385.97;;;15.53;74.99
82160;BME280;71734;50.876;7.372;2023-08-30T01:17:07;98376.81;;;15.57;75.13
82160;BME280;71734;50.876;7.372;2023-08-30T01:19:42;98372.44;;;15.56;75.17
82160;BME280;71734;50.876;7.372;2023-08-30T01:22:16;98368.59;;;15.60;74.98
82160;BME280;71734;50.876;7.372;2023-08-30T01:24:48;98374.69;;;15.62;74.73
82160;BME280;71734;50.876;7.372;2023-08-30T01:27:24;98369.56;;;15.59;74.90
82160;BME280;71734;50.876;7.372;2023-08-30T01:29:54;98367.84;;;15.58;74.86
82160;BME280;71734;50.876;7.372;2023-08-30T01:32:22;98366.13;;;15.57;74.94
82160;BME280;71734;50.876;7.372;2023-08-30T01:34:51;98359.09;;;15.56;74.54
82160;BME280;71734;50.876;7.372;2023-08-30T01:37:18;98359.84;;;15.58;74.77
82160;BME280;71734;50.876;7.372;2023-08-30T01:39:45;98355.66;;;15.54;74.93
82160;BME280;71734;50.876;7.372;2023-08-30T01:42:13;98359.41;;;15.52;74.70
82160;BME280;71734;50.876;7.372;2023-08-30T01:44:48;98352.41;;;15.49;74.79
82160;BME280;71734;50.876;7.372;2023-08-30T01:47:17;98359.13;;;15.42;74.44
82160;BME280;71734;50.876;7.372;2023-08-30T01:49:44;98353.03;;;15.40;74.19
82160;BME280;71734;50.876;7.372;2023-08-30T01:52:12;98353.44;;;15.34;74.37
82160;BME280;71734;50.876;7.372;2023-08-30T01:54:40;98349.03;;;15.33;74.50
82160;BME280;71734;50.876;7.372;2023-08-30T01:57:08;98342.75;;;15.34;74.35
82160;BME280;71734;50.876;7.372;2023-08-30T01:59:35;98344.03;;;15.41;74.02
82160;BME280;71734;50.876;7.372;2023-08-30T02:02:03;98342.53;;;15.37;73.98
82160;BME280;71734;50.876;7.372;2023-08-30T02:04:29;98337.63;;;15.31;74.12
82160;BME280;71734;50.876;7.372;2023-08-30T02:07:00;98347.69;;;15.40;74.04
82160;BME280;71734;50.876;7.372;2023-08-30T02:09:34;98340.22;;;15.45;74.71
82160;BME280;71734;50.876;7.372;2023-08-30T02:12:08;98337.53;;;15.45;74.29
82160;BME280;71734;50.876;7.372;2023-08-30T02:14:36;98341.38;;;14.75;76.52
82160;BME280;71734;50.876;7.372;2023-08-30T02:17:06;98340.38;;;14.49;77.89
82160;BME280;71734;50.876;7.372;2023-08-30T02:19:33;98342.44;;;14.58;76.95
82160;BME280;71734;50.876;7.372;2023-08-30T02:22:00;98337.50;;;14.52;77.68
82160;BME280;71734;50.876;7.372;2023-08-30T02:24:27;98341.47;;;14.73;76.95
82160;BME280;71734;50.876;7.372;2023-08-30T02:26:53;98341.72;;;15.10;75.43
82160;BME280;71734;50.876;7.372;2023-08-30T02:29:19;98338.44;;;14.51;77.52
82160;BME280;71734;50.876;7.372;2023-08-30T02:31:46;98340.44;;;14.48;77.69
82160;BME280;71734;50.876;7.372;2023-08-30T02:34:14;98331.78;;;14.30;78.35
82160;BME280;71734;50.876;7.372;2023-08-30T02:36:47;98335.13;;;14.33;78.71
82160;BME280;71734;50.876;7.372;2023-08-30T02:39:14;98340.53;;;14.60;77.31
82160;BME280;71734;50.876;7.372;2023-08-30T02:41:41;98336.13;;;14.73;77.39
82160;BME280;71734;50.876;7.372;2023-08-30T02:44:08;98326.25;;;14.88;76.51
82160;BME280;71734;50.876;7.372;2023-08-30T02:46:34;98334.53;;;14.98;76.24
82160;BME280;71734;50.876;7.372;2023-08-30T02:49:02;98336.94;;;15.15;75.80
82160;BME280;71734;50.876;7.372;2023-08-30T02:51:30;98318.50;;;15.37;74.61
82160;BME280;71734;50.876;7.372;2023-08-30T02:53:57;98324.00;;;15.48;74.14
82160;BME280;71734;50.876;7.372;2023-08-30T02:56:23;98320.59;;;15.07;75.70
82160;BME280;71734;50.876;7.372;2023-08-30T02:58:50;98326.72;;;14.95;76.51
82160;BME280;71734;50.876;7.372;2023-08-30T03:01:16;98324.09;;;14.80;76.79
82160;BME280;71734;50.876;7.372;2023-08-30T03:03:45;98309.25;;;14.76;76.72
82160;BME280;71734;50.876;7.372;2023-08-30T03:06:11;98306.69;;;14.75;77.18
82160;BME280;71734;50.876;7.372;2023-08-30T03:08:40;98307.59;;;14.88;76.53
82160;BME280;71734;50.876;7.372;2023-08-30T03:11:08;98310.19;;;14.75;76.88
82160;BME280;71734;50.876;7.372;2023-08-30T03:13:34;98308.84;;;14.82;76.85
82160;BME280;71734;50.876;7.372;2023-08-30T03:16:02;98308.63;;;15.00;76.34
82160;BME280;71734;50.876;7.372;2023-08-30T03:18:29;98316.06;;;14.95;76.26
82160;BME280;71734;50.876;7.372;2023-08-30T03:20:59;98319.69;;;14.94;76.42
82160;BME280;71734;50.876;7.372;2023-08-30T03:23:27;98311.66;;;14.94;76.13
82160;BME280;71734;50.876;7.372;2023-08-30T03:25:54;98315.19;;;14.94;75.87
82160;BME280;71734;50.876;7.372;2023-08-30T03:28:21;98316.78;;;14.97;75.82
82160;BME280;71734;50.876;7.372;2023-08-30T03:30:48;98323.13;;;15.08;75.94
82160;BME280;71734;50.876;7.372;2023-08-30T03:33:15;98327.31;;;15.12;75.56
82160;BME280;71734;50.876;7.372;2023-08-30T03:35:41;98314.31;;;15.08;75.96
82160;BME280;71734;50.876;7.372;2023-08-30T03:38:08;98313.47;;;15.20;75.52
82160;BME280;71734;50.876;7.372;2023-08-30T03:40:34;98314.88;;;15.25;75.31
82160;BME280;71734;50.876;7.372;2023-08-30T03:43:02;98317.09;;;15.19;75.49
82160;BME280;71734;50.876;7.372;2023-08-30T03:45:34;98314.66;;;15.16;75.86
82160;BME280;71734;50.876;7.372;2023-08-30T03:48:00;98314.97;;;15.24;75.18
82160;BME280;71734;50.876;7.372;2023-08-30T03:50:27;98314.22;;;15.22;75.78
82160;BME280;71734;50.876;7.372;2023-08-30T03:52:53;98311.56;;;15.22;75.39
82160;BME280;71734;50.876;7.372;2023-08-30T03:55:20;98307.59;;;15.15;76.26
82160;BME280;71734;50.876;7.372;2023-08-30T03:57:48;98310.25;;;15.15;76.06
82160;BME280;71734;50.876;7.372;2023-08-30T04:00:16;98307.47;;;15.16;76.02
82160;BME280;71734;50.876;7.372;2023-08-30T04:02:42;98308.97;;;15.08;75.85
82160;BME280;71734;50.876;7.372;2023-08-30T04:05:09;98311.41;;;15.11;75.69
82160;BME280;71734;50.876;7.372;2023-08-30T04:07:36;98311.28;;;15.12;75.25
82160;BME280;71734;50.876;7.372;2023-08-30T04:10:03;98313.53;;;15.06;76.05
82160;BME280;71734;50.876;7.372;2023-08-30T04:12:32;98312.66;;;15.05;75.64
82160;BME280;71734;50.876;7.372;2023-08-30T04:14:59;98308.25;;;14.92;76.21
82160;BME280;71734;50.876;7.372;2023-08-30T04:17:27;98311.75;;;14.92;76.43
82160;BME280;71734;50.876;7.372;2023-08-30T04:19:54;98300.66;;;14.59;77.59
82160;BME280;71734;50.876;7.372;2023-08-30T04:22:20;98296.78;;;14.22;79.10
82160;BME280;71734;50.876;7.372;2023-08-30T04:24:47;98302.88;;;14.10;79.50
82160;BME280;71734;50.876;7.372;2023-08-30T04:27:13;98305.94;;;13.89;80.14
82160;BME280;71734;50.876;7.372;2023-08-30T04:29:40;98310.84;;;13.95;79.57
82160;BME280;71734;50.876;7.372;2023-08-30T04:32:12;98298.06;;;13.58;81.06
82160;BME280;71734;50.876;7.372;2023-08-30T04:34:40;98313.19;;;13.43;81.66
82160;BME280;71734;50.876;7.372;2023-08-30T04:37:06;98307.84;;;13.43;81.63
82160;BME280;71734;50.876;7.372;2023-08-30T04:39:33;98309.56;;;13.44;81.86
82160;BME280;71734;50.876;7.372;2023-08-30T04:41:59;98306.72;;;13.47;81.17
82160;BME280;71734;50.876;7.372;2023-08-30T04:44:27;98304.69;;;13.07;82.96
82160;BME280;71734;50.876;7.372;2023-08-30T04:46:54;98309.84;;;13.10;83.02
82160;BME280;71734;50.876;7.372;2023-08-30T04:49:21;98313.97;;;13.16;82.62
82160;BME280;71734;50.876;7.372;2023-08-30T04:51:51;98306.06;;;13.14;83.08
82160;BME280;71734;50.876;7.372;2023-08-30T04:54:18;98296.09;;;13.18;81.90
82160;BME280;71734;50.876;7.372;2023-08-30T04:56:44;98292.25;;;12.92;83.32
82160;BME280;71734;50.876;7.372;2023-08-30T04:59:11;98286.03;;;12.77;83.44
82160;BME280;71734;50.876;7.372;2023-08-30T05:01:37;98288.44;;;12.82;83.03
82160;BME280;71734;50.876;7.372;2023-08-30T05:04:07;98279.44;;;12.69;83.32
82160;BME280;71734;50.876;7.372;2023-08-30T05:06:33;98280.13;;;13.18;82.47
82160;BME280;71734;50.876;7.372;2023-08-30T05:09:01;98279.81;;;13.52;80.30
82160;BME280;71734;50.876;7.372;2023-08-30T05:11:28;98281.34;;;13.56;79.48
82160;BME280;71734;50.876;7.372;2023-08-30T05:13:55;98280.06;;;13.77;79.10
82160;BME280;71734;50.876;7.372;2023-08-30T05:16:21;98275.66;;;13.90;78.34
82160;BME280;71734;50.876;7.372;2023-08-30T05:18:48;98279.84;;;13.94;78.10
82160;BME280;71734;50.876;7.372;2023-08-30T05:21:14;98271.47;;;13.58;79.88
82160;BME280;71734;50.876;7.372;2023-08-30T05:23:50;98271.41;;;13.30;80.64
82160;BME280;71734;50.876;7.372;2023-08-30T05:26:18;98271.00;;;13.22;81.56
82160;BME280;71734;50.876;7.372;2023-08-30T05:28:45;98272.16;;;13.18;81.53
82160;BME280;71734;50.876;7.372;2023-08-30T05:31:12;98267.09;;;12.97;82.19
82160;BME280;71734;50.876;7.372;2023-08-30T05:33:38;98263.72;;;13.10;82.07
82160;BME280;71734;50.876;7.372;2023-08-30T05:36:05;98256.28;;;13.16;81.44
82160;BME280;71734;50.876;7.372;2023-08-30T05:38:31;98255.31;;;12.87;83.17
82160;BME280;71734;50.876;7.372;2023-08-30T05:40:58;98256.47;;;12.97;82.43
82160;BME280;71734;50.876;7.372;2023-08-30T05:43:26;98252.78;;;12.70;83.84
82160;BME280;71734;50.876;7.372;2023-08-30T05:45:52;98251.94;;;12.54;84.20
82160;BME280;71734;50.876;7.372;2023-08-30T05:48:19;98254.97;;;12.78;83.46
82160;BME280;71734;50.876;7.372;2023-08-30T05:50:45;98254.97;;;12.78;83.78
82160;BME280;71734;50.876;7.372;2023-08-30T05:53:12;98253.59;;;12.86;82.65
82160;BME280;71734;50.876;7.372;2023-08-30T05:55:38;98245.25;;;12.92;82.27
82160;BME280;71734;50.876;7.372;2023-08-30T05:58:05;98239.19;;;13.04;82.16
82160;BME280;71734;50.876;7.372;2023-08-30T06:00:33;98246.78;;;13.26;81.01
82160;BME280;71734;50.876;7.372;2023-08-30T06:02:59;98244.31;;;13.23;81.68
82160;BME280;71734;50.876;7.372;2023-08-30T06:05:26;98246.59;;;13.15;81.94
82160;BME280;71734;50.876;7.372;2023-08-30T06:07:52;98252.13;;;13.26;80.77
82160;BME280;71734;50.876;7.372;2023-08-30T06:10:19;98249.03;;;13.48;80.08
82160;BME280;71734;50.876;7.372;2023-08-30T06:12:45;98250.00;;;13.17;82.03
82160;BME280;71734;50.876;7.372;2023-08-30T06:15:12;98247.38;;;13.45;80.38
82160;BME280;71734;50.876;7.372;2023-08-30T06:17:40;98261.38;;;13.63;80.00
82160;BME280;71734;50.876;7.372;2023-08-30T06:20:07;98255.84;;;13.38;80.97
82160;BME280;71734;50.876;7.372;2023-08-30T06:22:34;98255.84;;;13.24;81.91
82160;BME280;71734;50.876;7.372;2023-08-30T06:25:00;98248.09;;;12.89;83.37
82160;BME280;71734;50.876;7.372;2023-08-30T06:27:29;98242.22;;;12.98;83.32
82160;BME280;71734;50.876;7.372;2023-08-30T06:29:56;98244.22;;;13.25;82.42
82160;BME280;71734;50.876;7.372;2023-08-30T06:32:22;98241.00;;;13.20;82.58
82160;BME280;71734;50.876;7.372;2023-08-30T06:34:50;98239.13;;;13.06;83.38
82160;BME280;71734;50.876;7.372;2023-08-30T06:37:17;98237.75;;;13.15;83.29
82160;BME280;71734;50.876;7.372;2023-08-30T06:39:43;98245.84;;;13.41;82.10
82160;BME280;71734;50.876;7.372;2023-08-30T06:42:10;98238.34;;;13.34;82.71
82160;BME280;71734;50.876;7.372;2023-08-30T06:44:36;98232.75;;;13.38;82.67
82160;BME280;71734;50.876;7.372;2023-08-30T06:47:03;98231.63;;;13.42;82.39
82160;BME280;71734;50.876;7.372;2023-08-30T06:49:30;98227.91;;;13.45;82.63
82160;BME280;71734;50.876;7.372;2023-08-30T06:51:58;98223.25;;;13.63;81.61
82160;BME280;71734;50.876;7.372;2023-08-30T06:54:27;98224.31;;;13.60;81.88
82160;BME280;71734;50.876;7.372;2023-08-30T06:56:57;98223.75;;;13.69;82.79
82160;BME280;71734;50.876;7.372;2023-08-30T06:59:24;98205.78;;;13.73;81.89
82160;BME280;71734;50.876;7.372;2023-08-30T07:01:50;98201.84;;;13.78;81.92
82160;BME280;71734;50.876;7.372;2023-08-30T07:04:17;98217.81;;;13.78;81.49
82160;BME280;71734;50.876;7.372;2023-08-30T07:06:47;98208.56;;;13.98;81.53
82160;BME280;71734;50.876;7.372;2023-08-30T07:09:15;98208.94;;;14.06;80.93
82160;BME280;71734;50.876;7.372;2023-08-30T07:11:42;98196.84;;;14.15;80.16
82160;BME280;71734;50.876;7.372;2023-08-30T07:14:10;98199.72;;;14.12;80.09
82160;BME280;71734;50.876;7.372;2023-08-30T07:16:37;98204.47;;;14.07;80.64
82160;BME280;71734;50.876;7.372;2023-08-30T07:19:04;98199.34;;;14.04;81.47
82160;BME280;71734;50.876;7.372;2023-08-30T07:21:30;98200.44;;;14.28;80.35
82160;BME280;71734;50.876;7.372;2023-08-30T07:23:58;98204.25;;;14.38;80.20
82160;BME280;71734;50.876;7.372;2023-08-30T07:26:26;98203.09;;;14.42;79.19
82160;BME280;71734;50.876;7.372;2023-08-30T07:28:52;98198.34;;;14.60;79.15
82160;BME280;71734;50.876;7.372;2023-08-30T07:31:19;98197.75;;;14.69;78.74
82160;BME280;71734;50.876;7.372;2023-08-30T07:33:46;98196.22;;;14.92;78.24
82160;BME280;71734;50.876;7.372;2023-08-30T07:36:13;98188.94;;;14.94;76.66
82160;BME280;71734;50.876;7.372;2023-08-30T07:38:39;98199.44;;;15.09;76.10
82160;BME280;71734;50.876;7.372;2023-08-30T07:41:15;98192.91;;;15.13;76.51
82160;BME280;71734;50.876;7.372;2023-08-30T07:43:51;98185.69;;;15.15;75.42
82160;BME280;71734;50.876;7.372;2023-08-30T07:46:17;98201.38;;;15.20;75.21
82160;BME280;71734;50.876;7.372;2023-08-30T07:48:43;98194.22;;;15.08;74.64
82160;BME280;71734;50.876;7.372;2023-08-30T07:51:10;98187.06;;;15.21;75.58
82160;BME280;71734;50.876;7.372;2023-08-30T07:53:36;98181.09;;;15.43;75.79
82160;BME280;71734;50.876;7.372;2023-08-30T07:56:05;98191.03;;;15.53;75.01
82160;BME280;71734;50.876;7.372;2023-08-30T07:58:32;98192.44;;;15.59;73.44
82160;BME280;71734;50.876;7.372;2023-08-30T08:01:00;98195.09;;;15.71;72.86
82160;BME280;71734;50.876;7.372;2023-08-30T08:03:27;98199.25;;;15.75;72.47
82160;BME280;71734;50.876;7.372;2023-08-30T08:06:02;98202.94;;;15.98;71.78
82160;BME280;71734;50.876;7.372;2023-08-30T08:08:29;98193.66;;;16.04;70.19
82160;BME280;71734;50.876;7.372;2023-08-30T08:11:00;98200.50;;;16.32;70.44
82160;BME280;71734;50.876;7.372;2023-08-30T08:13:27;98200.19;;;16.36;70.46
82160;BME280;71734;50.876;7.372;2023-08-30T08:15:55;98197.22;;;16.28;69.14
82160;BME280;71734;50.876;7.372;2023-08-30T08:18:23;98182.41;;;16.35;69.53
82160;BME280;71734;50.876;7.372;2023-08-30T08:20:50;98193.28;;;16.45;67.75
82160;BME280;71734;50.876;7.372;2023-08-30T08:23:16;98197.06;;;16.42;66.79
82160;BME280;71734;50.876;7.372;2023-08-30T08:25:43;98185.78;;;16.62;68.77
82160;BME280;71734;50.876;7.372;2023-08-30T08:28:09;98192.13;;;16.72;66.22
82160;BME280;71734;50.876;7.372;2023-08-30T08:30:36;98182.44;;;16.83;67.31
82160;BME280;71734;50.876;7.372;2023-08-30T08:33:03;98195.31;;;16.78;66.92
82160;BME280;71734;50.876;7.372;2023-08-30T08:35:31;98187.22;;;16.90;66.00
82160;BME280;71734;50.876;7.372;2023-08-30T08:38:00;98191.81;;;17.23;65.02
82160;BME280;71734;50.876;7.372;2023-08-30T08:40:26;98197.81;;;17.49;66.17
82160;BME280;71734;50.876;7.372;2023-08-30T08:42:54;98196.66;;;17.75;65.19
82160;BME280;71734;50.876;7.372;2023-08-30T08:45:21;98193.59;;;18.02;63.51
82160;BME280;71734;50.876;7.372;2023-08-30T08:47:48;98188.09;;;18.15;62.38
82160;BME280;71734;50.876;7.372;2023-08-30T08:50:16;98193.34;;;18.16;62.14
82160;BME280;71734;50.876;7.372;2023-08-30T08:52:46;98183.97;;;18.10;60.70
82160;BME280;71734;50.876;7.372;2023-08-30T08:55:13;98190.38;;;18.30;60.66
82160;BME280;71734;50.876;7.372;2023-08-30T08:57:41;98183.56;;;18.37;60.37
82160;BME280;71734;50.876;7.372;2023-08-30T09:00:10;98171.69;;;17.97;59.73
82160;BME280;71734;50.876;7.372;2023-08-30T09:02:38;98184.03;;;18.42;61.44
82160;BME280;71734;50.876;7.372;2023-08-30T09:05:06;98178.59;;;18.76;59.50
82160;BME280;71734;50.876;7.372;2023-08-30T09:07:34;98165.19;;;18.96;58.94
82160;BME280;71734;50.876;7.372;2023-08-30T09:10:07;98163.09;;;19.41;58.84
82160;BME280;71734;50.876;7.372;2023-08-30T09:12:35;98182.16;;;18.97;57.36
82160;BME280;71734;50.876;7.372;2023-08-30T09:15:02;98178.31;;;18.58;59.72
82160;BME280;71734;50.876;7.372;2023-08-30T09:17:58;98177.56;;;18.88;52.80
82160;BME280;71734;50.876;7.372;2023-08-30T09:20:25;98160.75;;;19.27;55.11
82160;BME280;71734;50.876;7.372;2023-08-30T09:22:52;98159.69;;;19.39;54.59
82160;BME280;71734;50.876;7.372;2023-08-30T09:25:27;98161.19;;;19.32;54.16
82160;BME280;71734;50.876;7.372;2023-08-30T09:27:57;98163.09;;;19.41;54.02
82160;BME280;71734;50.876;7.372;2023-08-30T09:30:24;98166.81;;;19.71;54.98
82160;BME280;71734;50.876;7.372;2023-08-30T09:32:51;98160.59;;;20.10;52.81
82160;BME280;71734;50.876;7.372;2023-08-30T09:35:18;98157.13;;;19.89;55.29
82160;BME280;71734;50.876;7.372;2023-08-30T09:37:44;98154.47;;;19.59;52.66
82160;BME280;71734;50.876;7.372;2023-08-30T09:40:11;98155.50;;;19.77;53.02
82160;BME280;71734;50.876;7.372;2023-08-30T09:42:48;98155.53;;;20.17;52.03
82160;BME280;71734;50.876;7.372;2023-08-30T09:45:17;98151.66;;;19.70;52.12
82160;BME280;71734;50.876;7.372;2023-08-30T09:47:46;98149.31;;;20.16;52.61
82160;BME280;71734;50.876;7.372;2023-08-30T09:50:17;98142.19;;;20.46;53.06
82160;BME280;71734;50.876;7.372;2023-08-30T09:52:45;98137.50;;;20.67;50.50
82160;BME280;71734;50.876;7.372;2023-08-30T09:55:12;98131.09;;;20.87;51.46
82160;BME280;71734;50.876;7.372;2023-08-30T09:57:41;98130.06;;;20.21;51.41
82160;BME280;71734;50.876;7.372;2023-08-30T10:00:11;98126.41;;;20.31;51.07
82160;BME280;71734;50.876;7.372;2023-08-30T10:02:39;98121.56;;;19.76;51.88
82160;BME280;71734;50.876;7.372;2023-08-30T10:05:08;98121.72;;;19.44;52.53
82160;BME280;71734;50.876;7.372;2023-08-30T10:07:35;98120.00;;;19.22;54.29
82160;BME280;71734;50.876;7.372;2023-08-30T10:10:03;98114.91;;;18.98;56.44
82160;BME280;71734;50.876;7.372;2023-08-30T10:12:31;98122.78;;;18.47;55.68
82160;BME280;71734;50.876;7.372;2023-08-30T10:14:58;98109.16;;;18.07;56.50
82160;BME280;71734;50.876;7.372;2023-08-30T10:17:28;98116.34;;;18.07;58.13
82160;BME280;71734;50.876;7.372;2023-08-30T10:19:55;98113.94;;;17.82;56.79
82160;BME280;71734;50.876;7.372;2023-08-30T10:22:23;98116.22;;;17.97;58.11
82160;BME280;71734;50.876;7.372;2023-08-30T10:24:54;98109.56;;;17.92;57.62
82160;BME280;71734;50.876;7.372;2023-08-30T10:27:22;98104.94;;;17.83;58.06
82160;BME280;71734;50.876;7.372;2023-08-30T10:29:50;98110.28;;;17.83;58.73
82160;BME280;71734;50.876;7.372;2023-08-30T10:32:19;98102.63;;;17.78;59.67
82160;BME280;71734;50.876;7.372;2023-08-30T10:34:49;98098.75;;;17.60;59.15
82160;BME280;71734;50.876;7.372;2023-08-30T10:37:15;98098.88;;;17.58;59.42
82160;BME280;71734;50.876;7.372;2023-08-30T10:39:48;98096.41;;;17.55;60.41
82160;BME280;71734;50.876;7.372;2023-08-30T10:42:15;98101.06;;;17.64;60.68
82160;BME280;71734;50.876;7.372;2023-08-30T10:44:49;98112.59;;;17.43;59.89
82160;BME280;71734;50.876;7.372;2023-08-30T10:47:19;98113.19;;;17.46;62.39
82160;BME280;71734;50.876;7.372;2023-08-30T10:49:48;98106.38;;;17.31;61.71
82160;BME280;71734;50.876;7.372;2023-08-30T10:52:15;98107.97;;;17.34;62.17
82160;BME280;71734;50.876;7.372;2023-08-30T10:54:41;98104.41;;;17.44;62.99
82160;BME280;71734;50.876;7.372;2023-08-30T10:57:12;98122.59;;;17.52;61.58
82160;BME280;71734;50.876;7.372;2023-08-30T10:59:39;98126.81;;;17.32;65.34
82160;BME280;71734;50.876;7.372;2023-08-30T11:02:06;98114.53;;;17.18;65.42
82160;BME280;71734;50.876;7.372;2023-08-30T11:04:32;98112.81;;;17.17;66.21
82160;BME280;71734;50.876;7.372;2023-08-30T11:07:00;98120.22;;;17.14;67.39
82160;BME280;71734;50.876;7.372;2023-08-30T11:09:27;98122.41;;;16.98;66.09
82160;BME280;71734;50.876;7.372;2023-08-30T11:11:54;98120.22;;;17.03;70.66
82160;BME280;71734;50.876;7.372;2023-08-30T11:14:20;98120.22;;;17.03;70.61
82160;BME280;71734;50.876;7.372;2023-08-30T11:16:47;98117.31;;;17.17;70.40
82160;BME280;71734;50.876;7.372;2023-08-30T11:19:31;98112.66;;;17.08;69.25
82160;BME280;71734;50.876;7.372;2023-08-30T11:21:58;98107.59;;;17.27;71.67
82160;BME280;71734;50.876;7.372;2023-08-30T11:24:35;98113.81;;;17.28;70.88
82160;BME280;71734;50.876;7.372;2023-08-30T11:27:01;98108.22;;;17.31;73.03
82160;BME280;71734;50.876;7.372;2023-08-30T11:29:28;98109.06;;;17.31;71.71
82160;BME280;71734;50.876;7.372;2023-08-30T11:31:54;98099.31;;;17.30;71.25
82160;BME280;71734;50.876;7.372;2023-08-30T11:34:21;98087.59;;;17.20;70.04
82160;BME280;71734;50.876;7.372;2023-08-30T11:36:48;98090.44;;;17.07;71.32
82160;BME280;71734;50.876;7.372;2023-08-30T11:39:15;98092.25;;;17.18;70.91
82160;BME280;71734;50.876;7.372;2023-08-30T11:41:44;98085.38;;;16.92;71.84
82160;BME280;71734;50.876;7.372;2023-08-30T11:44:10;98089.16;;;16.78;71.04
82160;BME280;71734;50.876;7.372;2023-08-30T11:46:37;98084.22;;;17.07;71.79
82160;BME280;71734;50.876;7.372;2023-08-30T11:49:04;98082.97;;;17.00;71.88
82160;BME280;71734;50.876;7.372;2023-08-30T11:51:31;98077.59;;;16.78;72.11
82160;BME280;71734;50.876;7.372;2023-08-30T11:53:58;98073.69;;;16.82;71.80
82160;BME280;71734;50.876;7.372;2023-08-30T11:56:27;98072.75;;;16.94;73.13
82160;BME280;71734;50.876;7.372;2023-08-30T11:58:55;98081.91;;;17.02;72.60
82160;BME280;71734;50.876;7.372;2023-08-30T12:01:22;98086.84;;;16.85;70.70
82160;BME280;71734;50.876;7.372;2023-08-30T12:03:49;98078.56;;;16.88;70.77
82160;BME280;71734;50.876;7.372;2023-08-30T12:06:17;98104.63;;;16.97;69.01
82160;BME280;71734;50.876;7.372;2023-08-30T12:08:45;98118.00;;;16.86;71.56
82160;BME280;71734;50.876;7.372;2023-08-30T12:11:18;98111.28;;;16.80;73.96
82160;BME280;71734;50.876;7.372;2023-08-30T12:13:45;98118.00;;;16.86;76.81
82160;BME280;71734;50.876;7.372;2023-08-30T12:16:17;98126.09;;;16.73;77.16
82160;BME280;71734;50.876;7.372;2023-08-30T12:18:44;98121.63;;;16.85;77.71
82160;BME280;71734;50.876;7.372;2023-08-30T12:21:13;98123.09;;;16.89;76.85
82160;BME280;71734;50.876;7.372;2023-08-30T12:23:39;98118.34;;;16.81;77.40
82160;BME280;71734;50.876;7.372;2023-08-30T12:26:07;98124.44;;;16.83;77.06
82160;BME280;71734;50.876;7.372;2023-08-30T12:28:35;98123.19;;;16.76;78.02
82160;BME280;71734;50.876;7.372;2023-08-30T12:31:02;98117.59;;;16.79;78.03
82160;BME280;71734;50.876;7.372;2023-08-30T12:33:38;98129.16;;;16.80;77.74
82160;BME280;71734;50.876;7.372;2023-08-30T12:36:08;98117.69;;;16.66;78.57
82160;BME280;71734;50.876;7.372;2023-08-30T12:38:47;98106.50;;;16.72;78.35
82160;BME280;71734;50.876;7.372;2023-08-30T12:41:21;98113.97;;;16.56;79.16
82160;BME280;71734;50.876;7.372;2023-08-30T12:43:54;98111.28;;;16.56;78.92
82160;BME280;71734;50.876;7.372;2023-08-30T12:46:21;98116.63;;;16.56;79.12
82160;BME280;71734;50.876;7.372;2023-08-30T12:48:49;98118.59;;;16.54;78.75
82160;BME280;71734;50.876;7.372;2023-08-30T12:51:18;98115.41;;;16.49;79.48
82160;BME280;71734;50.876;7.372;2023-08-30T12:53:45;98112.84;;;16.48;79.66
82160;BME280;71734;50.876;7.372;2023-08-30T12:56:11;98114.63;;;16.60;79.07
82160;BME280;71734;50.876;7.372;2023-08-30T12:58:38;98101.28;;;16.47;79.46
82160;BME280;71734;50.876;7.372;2023-08-30T13:01:06;98109.31;;;16.47;80.08
82160;BME280;71734;50.876;7.372;2023-08-30T13:03:34;98110.06;;;16.49;79.64